Latest Weather Observations for Ocean Reef

IDW60901

Issued at 6:31 am WST Wednesday 23 October 2019 (issued every 10 minutes, with the page automatically refreshed every 10 minutes)

About weather observations | Map of Perth area stations | Latest observations for Perth area | Other Formats
Station Details ID: 009214 Name: OCEAN REEF Lat: -31.76 Lon: 115.73 Height: 10.0 m
Data from the previous 72 hours. | See also: Recent months at Ocean Reef
Date/Time
WST
Temp
°C
App
Temp
°C
Dew
Point
°C
Rel
Hum
%
Delta-T
°C
Wind Press
QNH
hPa
Press
MSL
hPa
Rain since
9am
mm
Dir  Spd
km/h
Gust
km/h
Spd
kts
Gust
kts
23/06:30am - - - - - SW 22 28 12 15 - - -
23/06:00am - - - - - WSW 26 30 14 16 - - -
23/05:30am - - - - - SW 17 22 9 12 - - -
23/05:00am - - - - - SW 20 26 11 14 - - -
23/04:30am - - - - - SW 20 26 11 14 - - -
23/04:00am - - - - - SW 19 24 10 13 - - -
23/03:30am - - - - - SW 24 30 13 16 - - -
23/03:00am - - - - - WSW 24 30 13 16 - - -
23/02:30am - - - - - SW 20 28 11 15 - - -
23/02:00am - - - - - SW 22 28 12 15 - - -
23/01:30am - - - - - WSW 20 26 11 14 - - -
23/01:00am - - - - - SW 19 26 10 14 - - -
23/12:30am - - - - - WSW 20 26 11 14 - - -
23/12:00am - - - - - SW 20 24 11 13 - - -
 
Date/Time
WST
Temp
°C
App
Temp
°C
Dew
Point
°C
Rel
Hum
%
Delta-T
°C
Wind Press
QNH
hPa
Press
MSL
hPa
Rain since
9am
mm
Dir  Spd
km/h
Gust
km/h
Spd
kts
Gust
kts
22/11:30pm - - - - - SW 19 24 10 13 - - -
22/11:00pm - - - - - SW 22 26 12 14 - - -
22/10:30pm - - - - - SW 20 26 11 14 - - -
22/10:00pm - - - - - SW 22 28 12 15 - - -
22/09:30pm - - - - - SW 20 28 11 15 - - -
22/09:00pm - - - - - SSW 19 24 10 13 - - -
22/08:30pm - - - - - SSW 17 20 9 11 - - -
22/08:00pm - - - - - SSW 22 26 12 14 - - -
22/07:30pm - - - - - SSW 20 24 11 13 - - -
22/07:00pm - - - - - SSW 22 26 12 14 - - -
22/06:30pm - - - - - SSW 22 26 12 14 - - -
22/06:00pm - - - - - SSW 19 24 10 13 - - -
22/05:30pm - - - - - SW 26 32 14 17 - - -
22/05:00pm - - - - - SSW 24 28 13 15 - - -
22/04:30pm - - - - - SSW 28 32 15 17 - - -
22/04:00pm - - - - - SSW 28 33 15 18 - - -
22/03:30pm - - - - - SSW 24 28 13 15 - - -
22/03:00pm - - - - - SSW 24 30 13 16 - - -
22/02:30pm - - - - - SSW 24 28 13 15 - - -
22/02:00pm - - - - - SSW 20 26 11 14 - - -
22/01:30pm - - - - - SW 22 26 12 14 - - -
22/01:00pm - - - - - SW 19 20 10 11 - - -
22/12:30pm - - - - - SW 19 20 10 11 - - -
22/12:00pm - - - - - SW 20 26 11 14 - - -
22/11:30am - - - - - SSW 19 24 10 13 - - -
22/11:00am - - - - - SW 20 24 11 13 - - -
22/10:30am - - - - - SW 20 24 11 13 - - -
22/10:00am - - - - - SW 19 20 10 11 - - -
22/09:30am - - - - - SSW 17 19 9 10 - - -
22/09:00am - - - - - SSW 15 17 8 9 - - -
22/08:30am - - - - - SE 9 15 5 8 - - -
22/08:00am - - - - - S 11 15 6 8 - - -
22/07:30am - - - - - S 13 15 7 8 - - -
22/07:00am - - - - - SSE 11 15 6 8 - - -
22/06:30am - - - - - SSE 9 11 5 6 - - -
22/06:00am - - - - - SE 11 13 6 7 - - -
22/05:30am - - - - - SE 11 13 6 7 - - -
22/05:00am - - - - - SSE 13 15 7 8 - - -
22/04:30am - - - - - SSE 13 19 7 10 - - -
22/04:00am - - - - - SSE 13 17 7 9 - - -
22/03:30am - - - - - SE 11 15 6 8 - - -
22/03:00am - - - - - SSE 15 19 8 10 - - -
22/02:30am - - - - - SSE 17 20 9 11 - - -
22/02:00am - - - - - SE 15 19 8 10 - - -
22/01:30am - - - - - SE 15 19 8 10 - - -
22/01:00am - - - - - SE 13 17 7 9 - - -
22/12:30am - - - - - SE 13 17 7 9 - - -
22/12:00am - - - - - SE 13 17 7 9 - - -
 
Date/Time
WST
Temp
°C
App
Temp
°C
Dew
Point
°C
Rel
Hum
%
Delta-T
°C
Wind Press
QNH
hPa
Press
MSL
hPa
Rain since
9am
mm
Dir  Spd
km/h
Gust
km/h
Spd
kts
Gust
kts
21/11:30pm - - - - - SE 13 15 7 8 - - -
21/11:00pm - - - - - SSE 19 28 10 15 - - -
21/10:30pm - - - - - S 26 32 14 17 - - -
21/10:00pm - - - - - S 26 32 14 17 - - -
21/09:30pm - - - - - S 28 33 15 18 - - -
21/09:00pm - - - - - SSW 26 30 14 16 - - -
21/08:30pm - - - - - SSW 26 32 14 17 - - -
21/08:00pm - - - - - SSW 24 28 13 15 - - -
21/07:30pm - - - - - SSW 24 28 13 15 - - -
21/07:00pm - - - - - SSW 22 28 12 15 - - -
21/06:30pm - - - - - SSW 22 28 12 15 - - -
21/06:00pm - - - - - SW 24 30 13 16 - - -
21/05:30pm - - - - - SW 26 30 14 16 - - -
21/05:00pm - - - - - SW 24 28 13 15 - - -
21/04:30pm - - - - - SW 24 30 13 16 - - -
21/04:00pm - - - - - SW 26 30 14 16 - - -
21/03:30pm - - - - - SW 26 30 14 16 - - -
21/03:00pm - - - - - SW 22 28 12 15 - - -
21/02:30pm - - - - - SW 24 28 13 15 - - -
21/02:00pm - - - - - SW 20 26 11 14 - - -
21/01:30pm - - - - - SW 20 26 11 14 - - -
21/01:00pm - - - - - SW 19 22 10 12 - - -
21/12:30pm - - - - - SW 17 20 9 11 - - -
21/12:00pm - - - - - SW 15 19 8 10 - - -
21/11:30am - - - - - SW 13 17 7 9 - - -
21/11:00am - - - - - SW 15 19 8 10 - - -
21/10:30am - - - - - SSW 13 19 7 10 - - -
21/10:00am - - - - - S 15 20 8 11 - - -
21/09:30am - - - - - S 13 19 7 10 - - -
21/09:00am - - - - - S 11 15 6 8 - - -
21/08:30am - - - - - SSW 9 15 5 8 - - -
21/08:00am - - - - - ESE 9 13 5 7 - - -
21/07:30am - - - - - ESE 13 17 7 9 - - -
21/07:00am - - - - - ESE 9 13 5 7 - - -
21/06:30am - - - - - ESE 11 17 6 9 - - -
21/06:00am - - - - - SE 13 15 7 8 - - -
21/05:30am - - - - - SE 11 15 6 8 - - -
21/05:00am - - - - - S 11 17 6 9 - - -
21/04:30am - - - - - SSW 15 19 8 10 - - -
21/04:00am - - - - - SSW 17 20 9 11 - - -
21/03:30am - - - - - SSW 17 22 9 12 - - -
21/03:00am - - - - - SSW 17 22 9 12 - - -
21/02:30am - - - - - SSW 19 22 10 12 - - -
21/02:00am - - - - - SSW 17 20 9 11 - - -
21/01:30am - - - - - SSW 15 17 8 9 - - -
21/01:00am - - - - - SW 17 19 9 10 - - -
21/12:30am - - - - - SW 13 17 7 9 - - -
21/12:00am - - - - - SW 17 22 9 12 - - -
 
Date/Time
WST
Temp
°C
App
Temp
°C
Dew
Point
°C
Rel
Hum
%
Delta-T
°C
Wind Press
QNH
hPa
Press
MSL
hPa
Rain since
9am
mm
Dir  Spd
km/h
Gust
km/h
Spd
kts
Gust
kts
20/11:30pm - - - - - SW 15 19 8 10 - - -
20/11:00pm - - - - - SW 13 17 7 9 - - -
20/10:30pm - - - - - SW 15 19 8 10 - - -
20/10:00pm - - - - - SW 13 19 7 10 - - -
20/09:30pm - - - - - SSW 19 24 10 13 - - -
20/09:00pm - - - - - SW 19 22 10 12 - - -
20/08:30pm - - - - - SW 17 24 9 13 - - -
20/08:00pm - - - - - WSW 13 17 7 9 - - -
20/07:30pm - - - - - W 17 20 9 11 - - -
20/07:00pm - - - - - WSW 22 26 12 14 - - -
20/06:30pm - - - - - W 19 20 10 11 - - -
20/06:00pm - - - - - WNW 15 17 8 9 - - -
20/05:30pm - - - - - WNW 17 22 9 12 - - -
20/05:00pm - - - - - WNW 24 28 13 15 - - -
20/04:30pm - - - - - WNW 20 26 11 14 - - -
20/04:00pm - - - - - WNW 26 30 14 16 - - -
20/03:30pm - - - - - WNW 24 28 13 15 - - -
20/03:00pm - - - - - WNW 24 28 13 15 - - -
20/02:30pm - - - - - WNW 30 33 16 18 - - -
20/02:00pm - - - - - WNW 28 32 15 17 - - -
20/01:30pm - - - - - WNW 28 33 15 18 - - -
20/01:00pm - - - - - WNW 28 33 15 18 - - -
20/12:30pm - - - - - NW 28 32 15 17 - - -
20/12:00pm - - - - - NW 28 32 15 17 - - -
20/11:30am - - - - - NNW 30 35 16 19 - - -
20/11:00am - - - - - NW 32 37 17 20 - - -
20/10:30am - - - - - NNW 33 37 18 20 - - -
20/10:00am - - - - - NNW 33 39 18 21 - - -
20/09:30am - - - - - NNW 32 37 17 20 - - -
20/09:00am - - - - - NNW 33 37 18 20 - - -
20/08:30am - - - - - NNW 32 37 17 20 - - -
20/08:00am - - - - - N 28 37 15 20 - - -
20/07:30am - - - - - N 22 30 12 16 - - -
20/07:00am - - - - - N 19 30 10 16 - - -

Latest Capital City Observations: Canberra | Sydney | Melbourne | Brisbane | Adelaide | Perth | Hobart | Darwin

Other formats

Comma delimited format used in spreadsheet applications
http://www.bom.gov.au/fwo/IDW60901/IDW60901.94607.axf

JavaScript Object Notation format (JSON) in row-major order
http://www.bom.gov.au/fwo/IDW60901/IDW60901.94607.json

Data quality

Most of these data are generated automatically and are frequently updated. Quality checks on data are not normally performed. It is possible for incorrect values to appear. Refer to information at About Latest Weather Observations and please check the disclaimer before using these data.